createdAt,value
2022-09-15T18:01:25.616Z,6.50
2022-09-15T18:02:26.556Z,6.60
2022-09-15T18:03:26.535Z,6.90
2022-09-15T18:04:26.487Z,7.50
2022-09-15T18:05:26.475Z,7.10
2022-09-15T18:06:26.451Z,7.00
2022-09-15T18:07:26.474Z,6.40
2022-09-15T18:08:26.460Z,7.00
2022-09-15T18:09:26.423Z,6.40
2022-09-15T18:10:26.418Z,8.00
2022-09-15T18:11:26.401Z,6.30
2022-09-15T18:12:26.386Z,5.90
2022-09-15T18:13:26.416Z,6.40
2022-09-15T18:14:26.394Z,6.20
2022-09-15T18:15:26.364Z,6.30
2022-09-15T18:16:26.367Z,5.90
2022-09-15T18:17:26.350Z,5.80
2022-09-15T18:18:26.361Z,7.00
2022-09-15T18:19:26.318Z,6.00
2022-09-15T18:20:26.314Z,5.60
2022-09-15T18:21:26.318Z,5.70
2022-09-15T18:22:26.296Z,5.20
2022-09-15T18:23:26.296Z,5.40
2022-09-15T18:24:26.278Z,5.60
2022-09-15T18:25:26.264Z,5.80
2022-09-15T18:26:26.952Z,5.50
2022-09-15T18:27:26.239Z,5.50
2022-09-15T18:28:26.247Z,5.60
2022-09-15T18:29:26.216Z,5.40
2022-09-15T18:30:26.199Z,5.50
2022-09-15T18:31:26.257Z,5.50
2022-09-15T18:32:26.178Z,5.80
2022-09-15T18:33:26.192Z,5.40
2022-09-15T18:34:26.156Z,5.20
2022-09-15T18:35:26.152Z,5.30
2022-09-15T18:36:26.161Z,5.40
2022-09-15T18:37:26.135Z,5.10
2022-09-15T18:38:26.136Z,5.20
2022-09-15T18:39:26.113Z,5.50
2022-09-15T18:40:26.150Z,5.40
2022-09-15T18:41:26.427Z,6.10
2022-09-15T18:42:29.741Z,5.60
2022-09-15T18:43:26.100Z,5.20
2022-09-15T18:44:26.055Z,6.50
2022-09-15T18:45:26.081Z,6.30
2022-09-15T18:46:26.215Z,6.00
2022-09-15T18:47:26.031Z,6.00
2022-09-15T18:48:26.051Z,6.20
2022-09-15T18:49:26.030Z,5.70
2022-09-15T18:50:26.003Z,5.80
2022-09-15T18:51:34.966Z,6.20
2022-09-15T18:52:25.980Z,5.60
2022-09-15T18:53:26.004Z,5.90
2022-09-15T18:54:26.753Z,5.70
2022-09-15T18:55:25.945Z,6.20
2022-09-15T18:56:26.823Z,5.70
2022-09-15T18:57:25.936Z,6.30
2022-09-15T18:58:25.928Z,5.90
2022-09-15T18:59:25.913Z,5.90
2022-09-15T19:00:25.977Z,6.10
2022-09-15T19:01:26.065Z,6.30
2022-09-15T19:02:25.946Z,5.60
2022-09-15T19:03:26.109Z,5.60
2022-09-15T19:04:31.639Z,5.70
2022-09-15T19:05:25.846Z,5.80
2022-09-15T19:06:25.843Z,6.00
2022-09-15T19:07:28.402Z,5.70
2022-09-15T19:08:25.840Z,6.20
2022-09-15T19:09:25.816Z,6.20
2022-09-15T19:10:25.847Z,6.40
2022-09-15T19:11:25.778Z,6.10
2022-09-15T19:12:25.764Z,6.60
2022-09-15T19:13:25.794Z,6.20
2022-09-15T19:14:25.741Z,7.00
2022-09-15T19:15:25.750Z,5.80
2022-09-15T19:16:34.670Z,6.10
2022-09-15T19:17:25.780Z,6.80
2022-09-15T19:18:25.723Z,6.20
2022-09-15T19:19:25.705Z,6.20
2022-09-15T19:20:26.249Z,6.00
2022-09-15T19:21:27.506Z,7.20
2022-09-15T19:22:25.658Z,6.00
2022-09-15T19:23:25.698Z,7.20
2022-09-15T19:24:25.652Z,6.00
2022-09-15T19:25:25.636Z,6.90
2022-09-15T19:26:25.618Z,6.80
2022-09-15T19:27:25.624Z,7.00
2022-09-15T19:28:25.644Z,6.50
2022-09-15T19:29:25.598Z,6.60
2022-09-15T19:30:25.606Z,6.90
2022-09-15T19:31:25.611Z,7.30
2022-09-15T19:32:25.549Z,6.40
2022-09-15T19:33:25.567Z,6.60
2022-09-15T19:34:25.551Z,6.60
2022-09-15T19:35:25.527Z,6.70
2022-09-15T19:36:29.341Z,7.00
2022-09-15T19:37:25.508Z,7.20
2022-09-15T19:38:25.512Z,8.00
2022-09-15T19:39:25.485Z,6.90
2022-09-15T19:40:25.503Z,6.90
2022-09-15T19:41:25.479Z,7.00
2022-09-15T19:42:25.453Z,7.30
2022-09-15T19:43:25.479Z,7.00
2022-09-15T19:44:25.444Z,6.70
2022-09-15T19:45:26.321Z,6.50
2022-09-15T19:46:25.464Z,6.70
2022-09-15T19:47:25.447Z,6.50
2022-09-15T19:48:25.412Z,7.00
2022-09-15T19:49:25.395Z,7.60
2022-09-15T19:50:26.320Z,6.30
2022-09-15T19:51:25.375Z,6.60
2022-09-15T19:52:25.344Z,6.40
2022-09-15T19:53:25.361Z,6.40
2022-09-15T19:54:25.349Z,7.00
2022-09-15T19:55:25.327Z,7.00
2022-09-15T19:56:25.311Z,7.20
2022-09-15T19:57:25.311Z,6.60
2022-09-15T19:58:25.305Z,7.30
2022-09-15T19:59:30.174Z,6.60
2022-09-15T20:00:25.278Z,7.40
2022-09-15T20:01:25.331Z,7.40
2022-09-15T20:02:25.336Z,7.00
2022-09-15T20:03:25.253Z,6.70
2022-09-15T20:04:25.220Z,7.30
2022-09-15T20:05:25.232Z,6.30
2022-09-15T20:06:28.901Z,6.60
2022-09-15T20:07:25.209Z,7.20
2022-09-15T20:08:25.200Z,6.90
2022-09-15T20:09:25.192Z,7.30
2022-09-15T20:10:25.180Z,7.00
2022-09-15T20:11:25.175Z,8.10
2022-09-15T20:12:25.159Z,8.00
2022-09-15T20:13:25.149Z,7.70
2022-09-15T20:14:25.152Z,8.10
2022-09-15T20:15:25.123Z,7.70
2022-09-15T20:16:25.118Z,8.10
2022-09-15T20:17:25.145Z,7.60
2022-09-15T20:18:25.095Z,6.90
2022-09-15T20:19:25.070Z,7.30
2022-09-15T20:20:25.055Z,7.60
2022-09-15T20:21:45.764Z,8.40
2022-09-15T20:22:25.055Z,8.40
2022-09-15T20:23:25.041Z,8.20
2022-09-15T20:24:25.013Z,7.80
2022-09-15T20:25:24.998Z,8.30
2022-09-15T20:26:25.014Z,8.70
2022-09-15T20:27:24.979Z,7.90
2022-09-15T20:28:25.004Z,8.40
2022-09-15T20:29:24.985Z,8.40
2022-09-15T20:30:25.020Z,8.10
2022-09-15T20:31:24.938Z,8.90
2022-09-15T20:32:28.272Z,8.60
2022-09-15T20:33:25.757Z,8.20
2022-09-15T20:34:24.915Z,8.00
2022-09-15T20:35:24.915Z,8.60
2022-09-15T20:36:24.907Z,9.20
2022-09-15T20:37:24.883Z,8.20
2022-09-15T20:38:24.898Z,10.00
2022-09-15T20:39:24.876Z,9.10
2022-09-15T20:40:24.943Z,8.90
2022-09-15T20:41:24.839Z,8.90
2022-09-15T20:42:24.846Z,11.30
2022-09-15T20:43:24.844Z,9.20
2022-09-15T20:44:24.826Z,8.40
2022-09-15T20:45:24.792Z,9.50
2022-09-15T20:46:24.812Z,9.10
2022-09-15T20:47:24.795Z,9.10
2022-09-15T20:48:24.899Z,9.30
2022-09-15T20:49:24.752Z,9.00
2022-09-15T20:50:25.004Z,9.00
2022-09-15T20:51:24.757Z,9.60
2022-09-15T20:52:29.420Z,9.10
2022-09-15T20:53:24.810Z,9.90
2022-09-15T20:54:25.418Z,9.60
2022-09-15T20:55:24.755Z,9.80
2022-09-15T20:56:24.688Z,9.70
2022-09-15T20:57:25.024Z,11.60
2022-09-15T20:58:24.869Z,10.30
2022-09-15T20:59:24.650Z,9.60
2022-09-15T21:00:24.643Z,9.50
2022-09-15T21:01:24.689Z,10.30
2022-09-15T21:02:24.679Z,10.00
2022-09-15T21:03:24.625Z,8.60
2022-09-15T21:04:24.622Z,9.00
2022-09-15T21:05:24.583Z,9.60
2022-09-15T21:06:24.676Z,10.50
2022-09-15T21:07:24.573Z,8.80
2022-09-15T21:08:24.573Z,10.00
2022-09-15T21:09:24.565Z,9.10
2022-09-15T21:10:24.554Z,10.20
2022-09-15T21:11:24.544Z,10.30
2022-09-15T21:12:24.539Z,10.20
2022-09-15T21:13:24.522Z,9.90
2022-09-15T21:14:24.497Z,9.60
2022-09-15T21:15:24.481Z,10.20
2022-09-15T21:16:24.556Z,9.50
2022-09-15T21:17:24.482Z,9.50
2022-09-15T21:18:24.483Z,9.70
2022-09-15T21:19:24.689Z,9.80
2022-09-15T21:20:24.476Z,9.90
2022-09-15T21:21:24.426Z,9.20
2022-09-15T21:22:24.431Z,9.70
2022-09-15T21:23:24.420Z,10.50
2022-09-15T21:24:24.413Z,10.60
2022-09-15T21:25:24.372Z,9.90
2022-09-15T21:26:24.377Z,10.50
2022-09-15T21:27:24.363Z,9.90
2022-09-15T21:28:24.365Z,10.90
2022-09-15T21:29:24.333Z,11.20
2022-09-15T21:30:24.349Z,11.40
2022-09-15T21:31:24.367Z,11.30
2022-09-15T21:32:24.325Z,12.40
2022-09-15T21:33:24.331Z,10.60
2022-09-15T21:34:24.285Z,10.00
2022-09-15T21:35:24.288Z,10.40
2022-09-15T21:36:24.276Z,10.40
2022-09-15T21:37:24.252Z,11.30
2022-09-15T21:38:24.277Z,10.30
2022-09-15T21:39:24.230Z,10.00
2022-09-15T21:40:24.321Z,10.80
2022-09-15T21:41:24.227Z,10.20
2022-09-15T21:42:24.224Z,10.80
2022-09-15T21:43:24.218Z,10.20
2022-09-15T21:44:24.216Z,9.90
2022-09-15T21:45:24.210Z,9.30
2022-09-15T21:46:24.175Z,10.10
2022-09-15T21:47:24.148Z,9.80
2022-09-15T21:48:24.160Z,10.00
2022-09-15T21:49:24.136Z,10.40
2022-09-15T21:50:24.157Z,11.20
2022-09-15T21:51:25.196Z,9.50
2022-09-15T21:52:24.106Z,10.60
